sensor_id;sensor_type;location;lat;lon;timestamp;P1;durP1;ratioP1;P2;durP2;ratioP2
20997;SDS011;10657;51.276;6.390;2023-03-01T00:01:13;8.57;;;4.13;;
20997;SDS011;10657;51.276;6.390;2023-03-01T00:03:45;9.20;;;4.78;;
20997;SDS011;10657;51.276;6.390;2023-03-01T00:06:12;7.13;;;2.75;;
20997;SDS011;10657;51.276;6.390;2023-03-01T00:08:39;7.55;;;4.20;;
20997;SDS011;10657;51.276;6.390;2023-03-01T00:11:08;8.95;;;3.65;;
20997;SDS011;10657;51.276;6.390;2023-03-01T00:13:39;6.15;;;2.78;;
20997;SDS011;10657;51.276;6.390;2023-03-01T00:16:07;8.15;;;4.38;;
20997;SDS011;10657;51.276;6.390;2023-03-01T00:18:39;6.32;;;2.85;;
20997;SDS011;10657;51.276;6.390;2023-03-01T00:21:06;4.90;;;1.92;;
20997;SDS011;10657;51.276;6.390;2023-03-01T00:23:36;9.43;;;4.95;;
20997;SDS011;10657;51.276;6.390;2023-03-01T00:26:07;8.40;;;3.78;;
20997;SDS011;10657;51.276;6.390;2023-03-01T00:28:35;7.13;;;3.20;;
20997;SDS011;10657;51.276;6.390;2023-03-01T00:31:03;7.72;;;4.20;;
20997;SDS011;10657;51.276;6.390;2023-03-01T00:33:34;6.00;;;2.60;;
20997;SDS011;10657;51.276;6.390;2023-03-01T00:36:01;7.75;;;3.88;;
20997;SDS011;10657;51.276;6.390;2023-03-01T00:38:28;6.93;;;3.35;;
20997;SDS011;10657;51.276;6.390;2023-03-01T00:40:55;5.22;;;2.30;;
20997;SDS011;10657;51.276;6.390;2023-03-01T00:43:28;7.57;;;4.22;;
20997;SDS011;10657;51.276;6.390;2023-03-01T00:45:55;5.65;;;2.05;;
20997;SDS011;10657;51.276;6.390;2023-03-01T00:48:21;4.95;;;2.03;;
20997;SDS011;10657;51.276;6.390;2023-03-01T00:50:48;8.55;;;4.55;;
20997;SDS011;10657;51.276;6.390;2023-03-01T00:53:14;10.35;;;5.43;;
20997;SDS011;10657;51.276;6.390;2023-03-01T00:55:41;8.95;;;5.10;;
20997;SDS011;10657;51.276;6.390;2023-03-01T00:58:07;9.70;;;4.90;;
20997;SDS011;10657;51.276;6.390;2023-03-01T01:00:34;6.50;;;3.45;;
20997;SDS011;10657;51.276;6.390;2023-03-01T01:03:01;9.85;;;5.18;;
20997;SDS011;10657;51.276;6.390;2023-03-01T01:05:27;9.10;;;4.07;;
20997;SDS011;10657;51.276;6.390;2023-03-01T01:07:54;11.20;;;5.05;;
20997;SDS011;10657;51.276;6.390;2023-03-01T01:10:20;6.50;;;3.15;;
20997;SDS011;10657;51.276;6.390;2023-03-01T01:12:47;9.38;;;5.50;;
20997;SDS011;10657;51.276;6.390;2023-03-01T01:15:14;8.27;;;4.30;;
20997;SDS011;10657;51.276;6.390;2023-03-01T01:17:42;9.35;;;5.20;;
20997;SDS011;10657;51.276;6.390;2023-03-01T01:20:09;7.82;;;3.78;;
20997;SDS011;10657;51.276;6.390;2023-03-01T01:22:37;10.68;;;5.45;;
20997;SDS011;10657;51.276;6.390;2023-03-01T01:25:03;10.85;;;5.47;;
20997;SDS011;10657;51.276;6.390;2023-03-01T01:27:30;6.95;;;3.22;;
20997;SDS011;10657;51.276;6.390;2023-03-01T01:29:57;8.93;;;5.28;;
20997;SDS011;10657;51.276;6.390;2023-03-01T01:32:23;10.15;;;5.70;;
20997;SDS011;10657;51.276;6.390;2023-03-01T01:34:52;13.80;;;8.20;;
20997;SDS011;10657;51.276;6.390;2023-03-01T01:37:19;13.02;;;5.45;;
20997;SDS011;10657;51.276;6.390;2023-03-01T01:39:45;8.60;;;4.03;;
20997;SDS011;10657;51.276;6.390;2023-03-01T01:42:15;13.38;;;5.43;;
20997;SDS011;10657;51.276;6.390;2023-03-01T01:44:46;10.60;;;6.07;;
20997;SDS011;10657;51.276;6.390;2023-03-01T01:47:17;9.90;;;5.63;;
20997;SDS011;10657;51.276;6.390;2023-03-01T01:49:49;10.48;;;5.85;;
20997;SDS011;10657;51.276;6.390;2023-03-01T01:52:29;12.13;;;5.78;;
20997;SDS011;10657;51.276;6.390;2023-03-01T01:55:07;9.52;;;4.88;;
20997;SDS011;10657;51.276;6.390;2023-03-01T02:00:11;12.43;;;6.30;;
20997;SDS011;10657;51.276;6.390;2023-03-01T02:02:44;11.90;;;6.05;;
20997;SDS011;10657;51.276;6.390;2023-03-01T02:07:45;12.02;;;6.40;;
20997;SDS011;10657;51.276;6.390;2023-03-01T02:10:12;11.30;;;6.28;;
20997;SDS011;10657;51.276;6.390;2023-03-01T02:12:39;10.75;;;6.00;;
20997;SDS011;10657;51.276;6.390;2023-03-01T02:15:05;9.82;;;5.45;;
20997;SDS011;10657;51.276;6.390;2023-03-01T02:17:32;10.82;;;5.85;;
20997;SDS011;10657;51.276;6.390;2023-03-01T02:20:04;9.52;;;5.38;;
20997;SDS011;10657;51.276;6.390;2023-03-01T02:22:33;8.77;;;4.43;;
20997;SDS011;10657;51.276;6.390;2023-03-01T02:30:30;9.18;;;4.85;;
20997;SDS011;10657;51.276;6.390;2023-03-01T02:32:58;9.43;;;4.70;;
20997;SDS011;10657;51.276;6.390;2023-03-01T02:35:29;10.93;;;5.78;;
20997;SDS011;10657;51.276;6.390;2023-03-01T02:37:58;13.52;;;7.95;;
20997;SDS011;10657;51.276;6.390;2023-03-01T02:40:30;11.00;;;6.03;;
20997;SDS011;10657;51.276;6.390;2023-03-01T02:42:58;9.85;;;5.28;;
20997;SDS011;10657;51.276;6.390;2023-03-01T02:45:25;7.45;;;3.53;;
20997;SDS011;10657;51.276;6.390;2023-03-01T02:47:56;8.30;;;4.00;;
20997;SDS011;10657;51.276;6.390;2023-03-01T02:53:04;8.85;;;3.90;;
20997;SDS011;10657;51.276;6.390;2023-03-01T02:55:43;9.05;;;3.58;;
20997;SDS011;10657;51.276;6.390;2023-03-01T02:58:09;11.02;;;5.93;;
20997;SDS011;10657;51.276;6.390;2023-03-01T03:00:37;10.82;;;5.22;;
20997;SDS011;10657;51.276;6.390;2023-03-01T03:03:10;9.82;;;5.70;;
20997;SDS011;10657;51.276;6.390;2023-03-01T03:05:39;10.77;;;5.90;;
20997;SDS011;10657;51.276;6.390;2023-03-01T03:08:07;7.75;;;3.63;;
20997;SDS011;10657;51.276;6.390;2023-03-01T03:10:35;7.32;;;3.33;;
20997;SDS011;10657;51.276;6.390;2023-03-01T03:13:04;8.23;;;3.55;;
20997;SDS011;10657;51.276;6.390;2023-03-01T03:15:33;9.65;;;4.65;;
20997;SDS011;10657;51.276;6.390;2023-03-01T03:18:03;9.77;;;4.28;;
20997;SDS011;10657;51.276;6.390;2023-03-01T03:20:32;10.70;;;6.22;;
20997;SDS011;10657;51.276;6.390;2023-03-01T03:22:59;11.57;;;6.45;;
20997;SDS011;10657;51.276;6.390;2023-03-01T03:25:26;13.32;;;6.63;;
20997;SDS011;10657;51.276;6.390;2023-03-01T03:27:54;12.65;;;6.22;;
20997;SDS011;10657;51.276;6.390;2023-03-01T03:30:25;6.00;;;2.40;;
20997;SDS011;10657;51.276;6.390;2023-03-01T03:32:54;6.63;;;2.80;;
20997;SDS011;10657;51.276;6.390;2023-03-01T03:35:24;8.65;;;2.85;;
20997;SDS011;10657;51.276;6.390;2023-03-01T03:38:00;10.07;;;5.63;;
20997;SDS011;10657;51.276;6.390;2023-03-01T03:40:33;9.45;;;5.25;;
20997;SDS011;10657;51.276;6.390;2023-03-01T03:43:02;8.38;;;4.32;;
20997;SDS011;10657;51.276;6.390;2023-03-01T03:45:29;12.30;;;6.97;;
20997;SDS011;10657;51.276;6.390;2023-03-01T03:47:59;11.48;;;6.57;;
20997;SDS011;10657;51.276;6.390;2023-03-01T03:50:26;12.27;;;6.72;;
20997;SDS011;10657;51.276;6.390;2023-03-01T03:52:53;12.55;;;7.18;;
20997;SDS011;10657;51.276;6.390;2023-03-01T03:55:19;11.35;;;6.30;;
20997;SDS011;10657;51.276;6.390;2023-03-01T03:57:47;11.40;;;5.82;;
20997;SDS011;10657;51.276;6.390;2023-03-01T04:00:21;10.73;;;5.28;;
20997;SDS011;10657;51.276;6.390;2023-03-01T04:02:50;10.77;;;6.05;;
20997;SDS011;10657;51.276;6.390;2023-03-01T04:05:17;9.38;;;4.82;;
20997;SDS011;10657;51.276;6.390;2023-03-01T04:07:45;8.00;;;3.85;;
20997;SDS011;10657;51.276;6.390;2023-03-01T04:10:13;13.27;;;8.07;;
20997;SDS011;10657;51.276;6.390;2023-03-01T04:12:41;9.88;;;5.75;;
20997;SDS011;10657;51.276;6.390;2023-03-01T04:15:11;11.10;;;6.22;;
20997;SDS011;10657;51.276;6.390;2023-03-01T04:17:41;7.07;;;2.92;;
20997;SDS011;10657;51.276;6.390;2023-03-01T04:20:09;10.90;;;6.10;;
20997;SDS011;10657;51.276;6.390;2023-03-01T04:22:39;10.30;;;6.22;;
20997;SDS011;10657;51.276;6.390;2023-03-01T04:25:06;10.52;;;6.22;;
20997;SDS011;10657;51.276;6.390;2023-03-01T04:27:33;13.20;;;6.97;;
20997;SDS011;10657;51.276;6.390;2023-03-01T04:30:02;11.73;;;6.18;;
20997;SDS011;10657;51.276;6.390;2023-03-01T04:32:29;12.35;;;6.53;;
20997;SDS011;10657;51.276;6.390;2023-03-01T04:34:56;10.88;;;6.40;;
20997;SDS011;10657;51.276;6.390;2023-03-01T04:37:23;14.27;;;8.43;;
20997;SDS011;10657;51.276;6.390;2023-03-01T04:39:50;11.95;;;6.15;;
20997;SDS011;10657;51.276;6.390;2023-03-01T04:42:17;12.10;;;6.70;;
20997;SDS011;10657;51.276;6.390;2023-03-01T04:44:44;8.38;;;4.70;;
20997;SDS011;10657;51.276;6.390;2023-03-01T04:47:12;14.02;;;7.50;;
20997;SDS011;10657;51.276;6.390;2023-03-01T04:49:39;10.25;;;5.95;;
20997;SDS011;10657;51.276;6.390;2023-03-01T04:52:05;10.70;;;5.28;;
20997;SDS011;10657;51.276;6.390;2023-03-01T04:54:32;10.15;;;6.10;;
20997;SDS011;10657;51.276;6.390;2023-03-01T04:57:01;9.88;;;5.88;;
20997;SDS011;10657;51.276;6.390;2023-03-01T04:59:29;7.80;;;4.38;;
20997;SDS011;10657;51.276;6.390;2023-03-01T05:01:55;10.98;;;6.07;;
20997;SDS011;10657;51.276;6.390;2023-03-01T05:04:23;8.80;;;5.10;;
20997;SDS011;10657;51.276;6.390;2023-03-01T05:06:50;7.30;;;3.55;;
20997;SDS011;10657;51.276;6.390;2023-03-01T05:09:19;15.43;;;8.80;;
20997;SDS011;10657;51.276;6.390;2023-03-01T05:11:46;7.10;;;3.17;;
20997;SDS011;10657;51.276;6.390;2023-03-01T05:14:12;6.72;;;3.38;;
20997;SDS011;10657;51.276;6.390;2023-03-01T05:16:39;8.27;;;4.13;;
20997;SDS011;10657;51.276;6.390;2023-03-01T05:19:06;9.63;;;5.43;;
20997;SDS011;10657;51.276;6.390;2023-03-01T05:21:44;12.07;;;8.02;;
20997;SDS011;10657;51.276;6.390;2023-03-01T05:24:30;7.95;;;3.60;;
20997;SDS011;10657;51.276;6.390;2023-03-01T05:26:58;8.25;;;3.85;;
20997;SDS011;10657;51.276;6.390;2023-03-01T05:29:25;8.60;;;4.60;;
20997;SDS011;10657;51.276;6.390;2023-03-01T05:31:56;11.27;;;5.78;;
20997;SDS011;10657;51.276;6.390;2023-03-01T05:34:25;13.57;;;8.50;;
20997;SDS011;10657;51.276;6.390;2023-03-01T05:36:53;14.45;;;8.25;;
20997;SDS011;10657;51.276;6.390;2023-03-01T05:39:21;14.93;;;7.82;;
20997;SDS011;10657;51.276;6.390;2023-03-01T05:41:56;5.63;;;2.35;;
20997;SDS011;10657;51.276;6.390;2023-03-01T05:44:25;8.95;;;4.75;;
20997;SDS011;10657;51.276;6.390;2023-03-01T05:46:53;9.07;;;4.28;;
20997;SDS011;10657;51.276;6.390;2023-03-01T05:49:20;7.28;;;3.38;;
20997;SDS011;10657;51.276;6.390;2023-03-01T05:51:50;7.75;;;3.58;;
20997;SDS011;10657;51.276;6.390;2023-03-01T05:54:21;12.25;;;7.60;;
20997;SDS011;10657;51.276;6.390;2023-03-01T05:56:48;9.18;;;3.38;;
20997;SDS011;10657;51.276;6.390;2023-03-01T05:59:14;7.78;;;3.90;;
20997;SDS011;10657;51.276;6.390;2023-03-01T06:01:42;8.73;;;4.68;;
20997;SDS011;10657;51.276;6.390;2023-03-01T06:04:09;14.05;;;7.80;;
20997;SDS011;10657;51.276;6.390;2023-03-01T06:06:36;9.10;;;5.15;;
20997;SDS011;10657;51.276;6.390;2023-03-01T06:09:04;10.90;;;6.13;;
20997;SDS011;10657;51.276;6.390;2023-03-01T06:11:33;12.30;;;7.15;;
20997;SDS011;10657;51.276;6.390;2023-03-01T06:14:01;9.95;;;5.70;;
20997;SDS011;10657;51.276;6.390;2023-03-01T06:16:28;11.85;;;5.55;;
20997;SDS011;10657;51.276;6.390;2023-03-01T06:18:55;10.80;;;5.38;;
20997;SDS011;10657;51.276;6.390;2023-03-01T06:21:22;15.07;;;8.60;;
20997;SDS011;10657;51.276;6.390;2023-03-01T06:23:48;9.55;;;3.75;;
20997;SDS011;10657;51.276;6.390;2023-03-01T06:26:15;7.00;;;3.80;;
20997;SDS011;10657;51.276;6.390;2023-03-01T06:28:42;9.95;;;4.88;;
20997;SDS011;10657;51.276;6.390;2023-03-01T06:31:12;6.72;;;2.80;;
20997;SDS011;10657;51.276;6.390;2023-03-01T06:33:38;8.57;;;3.58;;
20997;SDS011;10657;51.276;6.390;2023-03-01T06:36:05;7.25;;;3.47;;
20997;SDS011;10657;51.276;6.390;2023-03-01T06:38:32;8.38;;;3.53;;
20997;SDS011;10657;51.276;6.390;2023-03-01T06:40:59;8.70;;;3.92;;
20997;SDS011;10657;51.276;6.390;2023-03-01T06:43:27;12.02;;;3.80;;
20997;SDS011;10657;51.276;6.390;2023-03-01T06:45:53;8.00;;;3.63;;
20997;SDS011;10657;51.276;6.390;2023-03-01T06:48:20;7.20;;;3.17;;
20997;SDS011;10657;51.276;6.390;2023-03-01T06:50:47;7.80;;;3.40;;
20997;SDS011;10657;51.276;6.390;2023-03-01T06:53:13;8.25;;;2.78;;
20997;SDS011;10657;51.276;6.390;2023-03-01T06:55:40;10.02;;;4.70;;
20997;SDS011;10657;51.276;6.390;2023-03-01T06:58:08;11.02;;;4.55;;
20997;SDS011;10657;51.276;6.390;2023-03-01T07:00:36;12.30;;;5.30;;
20997;SDS011;10657;51.276;6.390;2023-03-01T07:03:02;8.90;;;4.22;;
20997;SDS011;10657;51.276;6.390;2023-03-01T07:05:29;13.93;;;6.32;;
20997;SDS011;10657;51.276;6.390;2023-03-01T07:07:57;17.50;;;10.27;;
20997;SDS011;10657;51.276;6.390;2023-03-01T07:10:23;6.65;;;2.50;;
20997;SDS011;10657;51.276;6.390;2023-03-01T07:12:50;9.63;;;2.90;;
20997;SDS011;10657;51.276;6.390;2023-03-01T07:15:20;10.23;;;5.45;;
20997;SDS011;10657;51.276;6.390;2023-03-01T07:17:47;7.93;;;4.40;;
20997;SDS011;10657;51.276;6.390;2023-03-01T07:20:17;8.73;;;2.50;;
20997;SDS011;10657;51.276;6.390;2023-03-01T07:22:45;6.40;;;2.75;;
20997;SDS011;10657;51.276;6.390;2023-03-01T07:25:11;7.78;;;3.22;;
20997;SDS011;10657;51.276;6.390;2023-03-01T07:27:38;8.30;;;3.65;;
20997;SDS011;10657;51.276;6.390;2023-03-01T07:30:05;16.23;;;8.77;;
20997;SDS011;10657;51.276;6.390;2023-03-01T07:32:32;9.10;;;4.88;;
20997;SDS011;10657;51.276;6.390;2023-03-01T07:34:59;5.50;;;2.40;;
20997;SDS011;10657;51.276;6.390;2023-03-01T07:37:25;7.65;;;2.80;;
20997;SDS011;10657;51.276;6.390;2023-03-01T07:39:52;11.18;;;6.43;;
20997;SDS011;10657;51.276;6.390;2023-03-01T07:42:18;8.38;;;4.65;;
20997;SDS011;10657;51.276;6.390;2023-03-01T07:44:45;11.90;;;5.63;;
20997;SDS011;10657;51.276;6.390;2023-03-01T07:47:12;11.10;;;6.10;;
20997;SDS011;10657;51.276;6.390;2023-03-01T07:49:38;8.70;;;4.00;;
20997;SDS011;10657;51.276;6.390;2023-03-01T07:52:05;14.55;;;6.25;;
20997;SDS011;10657;51.276;6.390;2023-03-01T07:54:31;7.40;;;3.10;;
20997;SDS011;10657;51.276;6.390;2023-03-01T07:56:58;18.63;;;10.45;;
20997;SDS011;10657;51.276;6.390;2023-03-01T07:59:25;7.32;;;3.50;;
20997;SDS011;10657;51.276;6.390;2023-03-01T08:01:55;9.10;;;4.45;;
20997;SDS011;10657;51.276;6.390;2023-03-01T08:04:23;13.57;;;7.57;;
20997;SDS011;10657;51.276;6.390;2023-03-01T08:06:51;10.93;;;5.57;;
20997;SDS011;10657;51.276;6.390;2023-03-01T08:09:17;8.07;;;3.35;;
20997;SDS011;10657;51.276;6.390;2023-03-01T08:11:44;13.55;;;7.07;;
20997;SDS011;10657;51.276;6.390;2023-03-01T08:14:11;7.68;;;3.75;;
20997;SDS011;10657;51.276;6.390;2023-03-01T08:16:37;7.63;;;2.40;;
20997;SDS011;10657;51.276;6.390;2023-03-01T08:19:05;19.13;;;8.07;;
20997;SDS011;10657;51.276;6.390;2023-03-01T08:21:33;7.88;;;2.50;;
20997;SDS011;10657;51.276;6.390;2023-03-01T08:24:06;10.75;;;5.40;;
20997;SDS011;10657;51.276;6.390;2023-03-01T08:26:33;14.77;;;7.47;;
20997;SDS011;10657;51.276;6.390;2023-03-01T08:29:00;8.48;;;3.25;;
20997;SDS011;10657;51.276;6.390;2023-03-01T08:31:34;13.27;;;7.10;;
20997;SDS011;10657;51.276;6.390;2023-03-01T08:34:09;8.30;;;3.72;;
20997;SDS011;10657;51.276;6.390;2023-03-01T08:36:39;9.40;;;4.20;;
20997;SDS011;10657;51.276;6.390;2023-03-01T08:39:08;7.90;;;2.33;;
20997;SDS011;10657;51.276;6.390;2023-03-01T08:41:36;7.28;;;3.10;;
20997;SDS011;10657;51.276;6.390;2023-03-01T08:44:04;6.18;;;2.13;;
20997;SDS011;10657;51.276;6.390;2023-03-01T08:46:35;9.82;;;2.55;;
20997;SDS011;10657;51.276;6.390;2023-03-01T08:49:07;6.05;;;2.17;;
20997;SDS011;10657;51.276;6.390;2023-03-01T08:51:35;6.70;;;2.58;;
20997;SDS011;10657;51.276;6.390;2023-03-01T08:54:06;8.07;;;2.40;;
20997;SDS011;10657;51.276;6.390;2023-03-01T08:56:37;9.80;;;2.17;;
20997;SDS011;10657;51.276;6.390;2023-03-01T08:59:04;5.50;;;2.10;;
20997;SDS011;10657;51.276;6.390;2023-03-01T09:01:31;8.25;;;2.60;;
20997;SDS011;10657;51.276;6.390;2023-03-01T09:03:57;6.75;;;2.05;;
20997;SDS011;10657;51.276;6.390;2023-03-01T09:06:24;7.93;;;4.18;;
20997;SDS011;10657;51.276;6.390;2023-03-01T09:08:51;7.43;;;3.75;;
20997;SDS011;10657;51.276;6.390;2023-03-01T09:11:19;5.15;;;2.08;;
20997;SDS011;10657;51.276;6.390;2023-03-01T09:13:48;5.43;;;1.98;;
20997;SDS011;10657;51.276;6.390;2023-03-01T09:16:15;5.22;;;1.92;;
20997;SDS011;10657;51.276;6.390;2023-03-01T09:18:45;3.80;;;1.50;;
20997;SDS011;10657;51.276;6.390;2023-03-01T09:21:16;2.80;;;1.05;;
20997;SDS011;10657;51.276;6.390;2023-03-01T09:23:56;5.40;;;1.90;;
20997;SDS011;10657;51.276;6.390;2023-03-01T09:26:23;5.95;;;2.03;;
20997;SDS011;10657;51.276;6.390;2023-03-01T09:28:51;5.28;;;1.70;;
20997;SDS011;10657;51.276;6.390;2023-03-01T09:31:21;5.68;;;2.17;;
20997;SDS011;10657;51.276;6.390;2023-03-01T09:33:50;6.32;;;1.98;;
20997;SDS011;10657;51.276;6.390;2023-03-01T09:36:19;7.32;;;2.25;;
20997;SDS011;10657;51.276;6.390;2023-03-01T09:38:48;6.85;;;2.15;;
20997;SDS011;10657;51.276;6.390;2023-03-01T09:44:20;1.98;;;0.73;;
20997;SDS011;10657;51.276;6.390;2023-03-01T09:46:50;6.65;;;2.63;;
20997;SDS011;10657;51.276;6.390;2023-03-01T09:49:19;6.90;;;1.92;;
20997;SDS011;10657;51.276;6.390;2023-03-01T09:52:14;4.30;;;1.75;;
20997;SDS011;10657;51.276;6.390;2023-03-01T09:54:54;7.22;;;2.10;;
20997;SDS011;10657;51.276;6.390;2023-03-01T09:57:28;6.25;;;2.00;;
20997;SDS011;10657;51.276;6.390;2023-03-01T10:02:43;7.63;;;2.08;;
20997;SDS011;10657;51.276;6.390;2023-03-01T10:08:06;4.50;;;1.60;;
20997;SDS011;10657;51.276;6.390;2023-03-01T10:10:46;1.55;;;0.65;;
20997;SDS011;10657;51.276;6.390;2023-03-01T10:13:21;5.43;;;2.00;;
20997;SDS011;10657;51.276;6.390;2023-03-01T10:15:54;6.40;;;1.90;;
20997;SDS011;10657;51.276;6.390;2023-03-01T10:18:27;2.55;;;0.90;;
20997;SDS011;10657;51.276;6.390;2023-03-01T10:21:00;5.03;;;1.23;;
20997;SDS011;10657;51.276;6.390;2023-03-01T10:23:30;3.08;;;1.13;;
20997;SDS011;10657;51.276;6.390;2023-03-01T10:31:47;3.03;;;1.23;;
20997;SDS011;10657;51.276;6.390;2023-03-01T10:34:21;1.67;;;0.70;;
20997;SDS011;10657;51.276;6.390;2023-03-01T10:36:55;3.58;;;1.20;;
20997;SDS011;10657;51.276;6.390;2023-03-01T10:39:26;4.47;;;1.60;;
20997;SDS011;10657;51.276;6.390;2023-03-01T10:41:57;4.28;;;1.55;;
20997;SDS011;10657;51.276;6.390;2023-03-01T10:47:27;6.25;;;2.28;;
20997;SDS011;10657;51.276;6.390;2023-03-01T10:49:59;7.05;;;2.33;;
20997;SDS011;10657;51.276;6.390;2023-03-01T10:52:36;4.43;;;1.30;;
20997;SDS011;10657;51.276;6.390;2023-03-01T10:58:07;1.48;;;0.63;;
20997;SDS011;10657;51.276;6.390;2023-03-01T11:00:48;3.63;;;1.33;;
20997;SDS011;10657;51.276;6.390;2023-03-01T11:03:36;5.30;;;1.83;;
20997;SDS011;10657;51.276;6.390;2023-03-01T11:13:57;5.88;;;2.00;;
20997;SDS011;10657;51.276;6.390;2023-03-01T11:16:57;4.05;;;1.35;;
20997;SDS011;10657;51.276;6.390;2023-03-01T11:19:29;1.98;;;0.73;;
20997;SDS011;10657;51.276;6.390;2023-03-01T11:22:16;4.40;;;1.58;;
20997;SDS011;10657;51.276;6.390;2023-03-01T11:24:47;4.97;;;1.70;;
20997;SDS011;10657;51.276;6.390;2023-03-01T11:27:35;6.47;;;2.17;;
20997;SDS011;10657;51.276;6.390;2023-03-01T11:30:23;5.50;;;2.08;;
20997;SDS011;10657;51.276;6.390;2023-03-01T11:33:01;8.43;;;1.83;;
20997;SDS011;10657;51.276;6.390;2023-03-01T11:35:37;7.90;;;3.25;;
20997;SDS011;10657;51.276;6.390;2023-03-01T11:38:18;5.80;;;1.52;;
20997;SDS011;10657;51.276;6.390;2023-03-01T11:40:58;4.70;;;1.70;;
20997;SDS011;10657;51.276;6.390;2023-03-01T11:43:33;4.85;;;1.90;;
20997;SDS011;10657;51.276;6.390;2023-03-01T11:46:20;7.40;;;1.95;;
20997;SDS011;10657;51.276;6.390;2023-03-01T11:54:59;5.10;;;1.88;;
20997;SDS011;10657;51.276;6.390;2023-03-01T12:03:28;5.95;;;2.25;;
20997;SDS011;10657;51.276;6.390;2023-03-01T12:41:43;5.32;;;1.83;;
20997;SDS011;10657;51.276;6.390;2023-03-01T12:55:06;5.40;;;1.55;;
20997;SDS011;10657;51.276;6.390;2023-03-01T12:57:47;6.70;;;3.03;;
20997;SDS011;10657;51.276;6.390;2023-03-01T13:01:12;4.97;;;1.98;;
20997;SDS011;10657;51.276;6.390;2023-03-01T13:06:32;4.93;;;1.58;;
20997;SDS011;10657;51.276;6.390;2023-03-01T13:11:49;6.30;;;1.70;;
20997;SDS011;10657;51.276;6.390;2023-03-01T13:16:52;4.75;;;1.70;;
20997;SDS011;10657;51.276;6.390;2023-03-01T13:19:23;4.28;;;1.33;;
20997;SDS011;10657;51.276;6.390;2023-03-01T13:21:53;3.90;;;1.60;;
20997;SDS011;10657;51.276;6.390;2023-03-01T13:29:46;6.95;;;2.00;;
20997;SDS011;10657;51.276;6.390;2023-03-01T13:32:24;5.65;;;1.80;;
20997;SDS011;10657;51.276;6.390;2023-03-01T13:37:46;6.45;;;1.80;;
20997;SDS011;10657;51.276;6.390;2023-03-01T13:42:43;6.93;;;1.80;;
20997;SDS011;10657;51.276;6.390;2023-03-01T13:45:36;4.20;;;1.70;;
20997;SDS011;10657;51.276;6.390;2023-03-01T13:48:08;4.05;;;1.33;;
20997;SDS011;10657;51.276;6.390;2023-03-01T13:50:47;4.43;;;1.48;;
20997;SDS011;10657;51.276;6.390;2023-03-01T13:53:24;5.88;;;1.90;;
20997;SDS011;10657;51.276;6.390;2023-03-01T13:55:55;5.78;;;1.77;;
20997;SDS011;10657;51.276;6.390;2023-03-01T13:58:30;4.25;;;1.52;;
20997;SDS011;10657;51.276;6.390;2023-03-01T14:01:02;6.10;;;1.90;;
20997;SDS011;10657;51.276;6.390;2023-03-01T14:03:31;5.03;;;1.77;;
20997;SDS011;10657;51.276;6.390;2023-03-01T14:08:42;5.55;;;1.77;;
20997;SDS011;10657;51.276;6.390;2023-03-01T14:14:06;2.85;;;0.80;;
20997;SDS011;10657;51.276;6.390;2023-03-01T14:16:49;6.88;;;2.03;;
20997;SDS011;10657;51.276;6.390;2023-03-01T14:19:46;5.53;;;2.00;;
20997;SDS011;10657;51.276;6.390;2023-03-01T14:22:24;4.88;;;1.60;;
20997;SDS011;10657;51.276;6.390;2023-03-01T14:25:01;4.55;;;1.80;;
20997;SDS011;10657;51.276;6.390;2023-03-01T14:27:38;5.55;;;1.70;;
20997;SDS011;10657;51.276;6.390;2023-03-01T14:30:12;3.83;;;1.27;;
20997;SDS011;10657;51.276;6.390;2023-03-01T14:32:51;3.22;;;1.35;;
20997;SDS011;10657;51.276;6.390;2023-03-01T14:35:20;3.83;;;1.20;;
20997;SDS011;10657;51.276;6.390;2023-03-01T14:37:49;4.35;;;1.60;;
20997;SDS011;10657;51.276;6.390;2023-03-01T14:40:20;5.70;;;1.70;;
20997;SDS011;10657;51.276;6.390;2023-03-01T14:42:52;4.60;;;1.60;;
20997;SDS011;10657;51.276;6.390;2023-03-01T14:45:20;3.10;;;1.13;;
20997;SDS011;10657;51.276;6.390;2023-03-01T14:47:47;4.45;;;1.33;;
20997;SDS011;10657;51.276;6.390;2023-03-01T14:52:48;4.85;;;1.73;;
20997;SDS011;10657;51.276;6.390;2023-03-01T14:55:33;2.13;;;0.70;;
20997;SDS011;10657;51.276;6.390;2023-03-01T14:58:04;5.00;;;1.42;;
20997;SDS011;10657;51.276;6.390;2023-03-01T15:00:32;6.68;;;1.60;;
20997;SDS011;10657;51.276;6.390;2023-03-01T15:03:01;2.83;;;1.00;;
20997;SDS011;10657;51.276;6.390;2023-03-01T15:05:35;2.67;;;0.95;;
20997;SDS011;10657;51.276;6.390;2023-03-01T15:08:03;4.60;;;1.83;;
20997;SDS011;10657;51.276;6.390;2023-03-01T15:10:32;5.45;;;1.60;;
20997;SDS011;10657;51.276;6.390;2023-03-01T15:16:05;5.45;;;1.63;;
20997;SDS011;10657;51.276;6.390;2023-03-01T15:18:33;6.30;;;2.08;;
20997;SDS011;10657;51.276;6.390;2023-03-01T15:21:09;5.03;;;1.52;;
20997;SDS011;10657;51.276;6.390;2023-03-01T15:23:41;5.40;;;2.00;;
20997;SDS011;10657;51.276;6.390;2023-03-01T15:26:20;11.35;;;3.63;;
20997;SDS011;10657;51.276;6.390;2023-03-01T15:28:58;2.75;;;0.95;;
20997;SDS011;10657;51.276;6.390;2023-03-01T15:31:27;9.35;;;3.20;;
20997;SDS011;10657;51.276;6.390;2023-03-01T15:36:58;2.35;;;1.05;;
20997;SDS011;10657;51.276;6.390;2023-03-01T15:42:07;4.15;;;1.45;;
20997;SDS011;10657;51.276;6.390;2023-03-01T15:44:37;4.30;;;1.52;;
20997;SDS011;10657;51.276;6.390;2023-03-01T15:47:26;5.32;;;1.80;;
20997;SDS011;10657;51.276;6.390;2023-03-01T15:49:57;4.10;;;1.73;;
20997;SDS011;10657;51.276;6.390;2023-03-01T15:52:29;4.03;;;1.40;;
20997;SDS011;10657;51.276;6.390;2023-03-01T15:55:03;8.38;;;2.55;;
20997;SDS011;10657;51.276;6.390;2023-03-01T15:57:44;4.47;;;1.50;;
20997;SDS011;10657;51.276;6.390;2023-03-01T16:00:11;2.58;;;1.15;;
20997;SDS011;10657;51.276;6.390;2023-03-01T16:02:40;4.60;;;1.25;;
20997;SDS011;10657;51.276;6.390;2023-03-01T16:05:19;7.53;;;2.75;;
20997;SDS011;10657;51.276;6.390;2023-03-01T16:08:00;5.43;;;1.63;;
20997;SDS011;10657;51.276;6.390;2023-03-01T16:10:27;4.60;;;1.55;;
20997;SDS011;10657;51.276;6.390;2023-03-01T16:12:54;5.13;;;1.70;;
20997;SDS011;10657;51.276;6.390;2023-03-01T16:15:25;4.65;;;1.48;;
20997;SDS011;10657;51.276;6.390;2023-03-01T16:17:57;3.47;;;1.25;;
20997;SDS011;10657;51.276;6.390;2023-03-01T16:20:24;4.53;;;1.75;;
20997;SDS011;10657;51.276;6.390;2023-03-01T16:22:58;2.80;;;0.85;;
20997;SDS011;10657;51.276;6.390;2023-03-01T16:25:29;1.92;;;0.60;;
20997;SDS011;10657;51.276;6.390;2023-03-01T16:28:00;4.70;;;1.73;;
20997;SDS011;10657;51.276;6.390;2023-03-01T16:30:30;5.28;;;2.03;;
20997;SDS011;10657;51.276;6.390;2023-03-01T16:32:57;4.63;;;1.70;;
20997;SDS011;10657;51.276;6.390;2023-03-01T16:35:24;3.55;;;1.10;;
20997;SDS011;10657;51.276;6.390;2023-03-01T16:37:51;5.07;;;1.33;;
20997;SDS011;10657;51.276;6.390;2023-03-01T16:40:22;5.60;;;1.90;;
20997;SDS011;10657;51.276;6.390;2023-03-01T16:42:51;6.25;;;1.80;;
20997;SDS011;10657;51.276;6.390;2023-03-01T16:45:19;4.28;;;1.35;;
20997;SDS011;10657;51.276;6.390;2023-03-01T16:47:50;6.68;;;1.95;;
20997;SDS011;10657;51.276;6.390;2023-03-01T16:50:21;4.55;;;1.48;;
20997;SDS011;10657;51.276;6.390;2023-03-01T16:52:48;5.15;;;1.88;;
20997;SDS011;10657;51.276;6.390;2023-03-01T16:55:15;4.68;;;1.50;;
20997;SDS011;10657;51.276;6.390;2023-03-01T16:57:42;4.38;;;1.50;;
20997;SDS011;10657;51.276;6.390;2023-03-01T17:00:10;5.32;;;1.70;;
20997;SDS011;10657;51.276;6.390;2023-03-01T17:02:39;4.30;;;1.48;;
20997;SDS011;10657;51.276;6.390;2023-03-01T17:05:07;4.75;;;1.50;;
20997;SDS011;10657;51.276;6.390;2023-03-01T17:07:36;5.05;;;1.50;;
20997;SDS011;10657;51.276;6.390;2023-03-01T17:10:03;3.90;;;1.48;;
20997;SDS011;10657;51.276;6.390;2023-03-01T17:12:34;5.55;;;1.88;;
20997;SDS011;10657;51.276;6.390;2023-03-01T17:15:02;5.72;;;1.70;;
20997;SDS011;10657;51.276;6.390;2023-03-01T17:17:30;2.58;;;0.98;;
20997;SDS011;10657;51.276;6.390;2023-03-01T17:19:57;6.60;;;1.80;;